createdAt,value
2018-01-12T00:00:25.686Z,74.40
2018-01-12T00:02:53.316Z,74.40
2018-01-12T00:05:21.668Z,74.50
2018-01-12T00:07:50.758Z,74.50
2018-01-12T00:10:18.376Z,74.50
2018-01-12T00:12:45.980Z,74.50
2018-01-12T00:15:13.574Z,74.60
2018-01-12T00:17:41.164Z,74.50
2018-01-12T00:20:08.803Z,75.10
2018-01-12T00:22:36.402Z,74.70
2018-01-12T00:25:03.987Z,74.80
2018-01-12T00:27:31.610Z,74.70
2018-01-12T00:29:59.985Z,74.60
2018-01-12T00:32:28.383Z,75.10
2018-01-12T00:34:56.743Z,74.50
2018-01-12T00:37:25.109Z,74.50
2018-01-12T00:39:52.724Z,74.60
2018-01-12T00:42:21.080Z,74.60
2018-01-12T00:44:48.687Z,74.60
2018-01-12T00:47:16.295Z,74.90
2018-01-12T00:49:43.924Z,74.50
2018-01-12T00:52:11.521Z,74.50
2018-01-12T00:54:39.122Z,74.50
2018-01-12T00:57:07.515Z,74.50
2018-01-12T00:59:35.883Z,74.50
2018-01-12T01:02:04.288Z,74.50
2018-01-12T01:04:31.888Z,74.50
2018-01-12T01:06:59.590Z,74.50
2018-01-12T01:09:27.211Z,74.50
2018-01-12T01:11:54.853Z,74.60
2018-01-12T01:14:22.768Z,74.60
2018-01-12T01:16:50.368Z,74.50
2018-01-12T01:19:19.071Z,74.80
2018-01-12T01:21:46.690Z,74.40
2018-01-12T01:24:14.278Z,74.30
2018-01-12T01:26:42.662Z,74.20
2018-01-12T01:29:11.018Z,74.30
2018-01-12T01:31:38.638Z,74.30
2018-01-12T01:34:07.004Z,74.30
2018-01-12T01:36:35.410Z,74.30
2018-01-12T01:39:03.007Z,74.30
2018-01-12T01:41:30.611Z,74.20
2018-01-12T01:43:58.225Z,74.20
2018-01-12T01:46:25.810Z,74.20
2018-01-12T01:48:53.430Z,74.20
2018-01-12T01:51:21.804Z,74.20
2018-01-12T01:53:50.165Z,74.10
2018-01-12T01:56:18.553Z,74.00
2018-01-12T01:58:47.656Z,73.90
2018-01-12T02:01:15.275Z,73.90
2018-01-12T02:03:42.875Z,73.90
2018-01-12T02:06:10.561Z,74.00
2018-01-12T02:08:38.165Z,74.00
2018-01-12T02:11:05.755Z,74.00
2018-01-12T02:13:33.367Z,74.00
2018-01-12T02:16:01.726Z,73.90
2018-01-12T02:18:29.332Z,73.90
2018-01-12T02:20:56.952Z,73.90
2018-01-12T02:23:24.643Z,73.90
2018-01-12T02:25:53.005Z,73.90
2018-01-12T02:28:22.121Z,73.70
2018-01-12T02:30:50.531Z,73.60
2018-01-12T02:33:18.121Z,73.60
2018-01-12T02:35:46.089Z,73.60
2018-01-12T02:38:13.701Z,73.40
2018-01-12T02:40:42.802Z,73.50
2018-01-12T02:43:10.421Z,73.40
2018-01-12T02:45:38.024Z,73.70
2018-01-12T02:48:05.656Z,73.30
2018-01-12T02:50:33.249Z,73.30
2018-01-12T02:53:00.844Z,73.30
2018-01-12T02:55:29.223Z,73.40
2018-01-12T02:57:56.802Z,73.30
2018-01-12T03:00:25.303Z,73.30
2018-01-12T03:02:52.907Z,73.30
2018-01-12T03:05:20.524Z,73.20
2018-01-12T03:07:48.162Z,73.10
2018-01-12T03:10:16.054Z,73.20
2018-01-12T03:12:44.418Z,73.10
2018-01-12T03:15:12.010Z,73.10
2018-01-12T03:17:39.620Z,73.00
2018-01-12T03:20:07.214Z,72.90
2018-01-12T03:22:34.824Z,72.90
2018-01-12T03:25:02.568Z,72.90
2018-01-12T03:27:31.057Z,72.70
2018-01-12T03:29:59.411Z,72.90
2018-01-12T03:32:27.004Z,72.80
2018-01-12T03:34:55.377Z,72.80
2018-01-12T03:37:23.723Z,73.30
2018-01-12T03:39:51.318Z,72.70
2018-01-12T03:42:19.683Z,73.00
2018-01-12T03:44:48.072Z,72.80
2018-01-12T03:47:15.681Z,72.70
2018-01-12T03:49:43.279Z,72.70
2018-01-12T03:52:10.907Z,72.70
2018-01-12T03:54:38.491Z,72.70
2018-01-12T03:57:06.123Z,72.60
2018-01-12T03:59:34.631Z,72.80
2018-01-12T04:02:02.245Z,72.70
2018-01-12T04:04:29.839Z,72.80
2018-01-12T04:06:58.230Z,73.00
2018-01-12T04:09:26.583Z,73.00
2018-01-12T04:11:55.830Z,73.00
2018-01-12T04:14:23.447Z,72.90
2018-01-12T04:16:51.039Z,72.80
2018-01-12T04:19:19.421Z,72.90
2018-01-12T04:21:47.784Z,72.80
2018-01-12T04:24:15.491Z,72.80
2018-01-12T04:26:43.117Z,73.40
2018-01-12T04:29:12.219Z,72.80
2018-01-12T04:31:40.142Z,72.80
2018-01-12T04:34:07.749Z,72.60
2018-01-12T04:36:36.895Z,72.50
2018-01-12T04:39:04.503Z,72.50
2018-01-12T04:41:32.093Z,72.50
2018-01-12T04:44:01.222Z,73.10
2018-01-12T04:46:28.810Z,72.60
2018-01-12T04:48:56.416Z,72.70
2018-01-12T04:51:25.532Z,72.80
2018-01-12T04:53:53.886Z,73.10
2018-01-12T04:56:21.511Z,72.60
2018-01-12T04:58:49.164Z,72.50
2018-01-12T05:01:16.753Z,72.60
2018-01-12T05:03:44.421Z,72.40
2018-01-12T05:06:12.074Z,72.20
2018-01-12T05:08:40.021Z,72.20
2018-01-12T05:11:08.405Z,72.20
2018-01-12T05:13:36.809Z,72.20
2018-01-12T05:16:04.441Z,72.20
2018-01-12T05:18:32.033Z,72.10
2018-01-12T05:21:00.434Z,71.80
2018-01-12T05:23:28.104Z,71.80
2018-01-12T05:25:55.714Z,71.60
2018-01-12T05:28:24.087Z,71.70
2018-01-12T05:30:52.590Z,71.70
2018-01-12T05:33:20.314Z,72.20
2018-01-12T05:35:48.040Z,71.70
2018-01-12T05:38:16.420Z,72.10
2018-01-12T05:40:44.790Z,71.70
2018-01-12T05:43:14.246Z,71.90
2018-01-12T05:45:41.845Z,71.80
2018-01-12T05:48:09.487Z,71.70
2018-01-12T05:50:37.109Z,72.00
2018-01-12T05:53:05.466Z,71.70
2018-01-12T05:55:33.097Z,71.60
2018-01-12T05:58:00.715Z,71.70
2018-01-12T06:00:29.118Z,71.60
2018-01-12T06:06:19.312Z,71.60
2018-01-12T06:08:47.671Z,71.90
2018-01-12T06:11:16.031Z,71.80
2018-01-12T06:13:43.728Z,71.70
2018-01-12T06:16:12.093Z,71.40
2018-01-12T06:18:40.509Z,71.20
2018-01-12T06:21:08.131Z,71.20
2018-01-12T06:23:35.776Z,71.20
2018-01-12T06:26:03.399Z,71.00
2018-01-12T06:28:31.758Z,70.90
2018-01-12T06:30:59.795Z,70.80
2018-01-12T06:33:27.424Z,70.70
2018-01-12T06:35:55.806Z,70.90
2018-01-12T06:38:24.184Z,70.80
2018-01-12T06:40:52.595Z,70.40
2018-01-12T06:43:20.222Z,70.40
2018-01-12T06:45:47.822Z,70.20
2018-01-12T06:48:15.424Z,70.40
2018-01-12T06:50:43.030Z,70.30
2018-01-12T06:53:11.398Z,70.50
2018-01-12T06:55:39.048Z,70.40
2018-01-12T06:58:06.651Z,70.30
2018-01-12T07:00:35.018Z,70.80
2018-01-12T07:03:02.640Z,70.70
2018-01-12T07:05:30.229Z,70.90
2018-01-12T07:07:57.840Z,71.10
2018-01-12T07:10:25.620Z,71.40
2018-01-12T07:12:53.242Z,71.20
2018-01-12T07:15:20.977Z,71.30
2018-01-12T07:17:48.629Z,71.40
2018-01-12T07:20:28.148Z,71.20
2018-01-12T07:23:08.485Z,71.40
2018-01-12T07:25:36.862Z,70.80
2018-01-12T07:28:05.226Z,71.00
2018-01-12T07:30:33.067Z,70.90
2018-01-12T07:33:00.655Z,71.00
2018-01-12T07:35:28.261Z,70.90
2018-01-12T07:37:56.767Z,71.20
2018-01-12T07:40:24.393Z,71.10
2018-01-12T07:42:51.997Z,71.10
2018-01-12T07:45:19.616Z,71.00
2018-01-12T07:47:47.983Z,71.10
2018-01-12T07:50:15.588Z,71.10
2018-01-12T07:52:49.494Z,71.20
2018-01-12T07:55:17.086Z,71.20
2018-01-12T07:57:44.911Z,71.80
2018-01-12T08:00:13.272Z,70.90
2018-01-12T08:02:46.552Z,71.50
2018-01-12T08:05:14.267Z,71.00
2018-01-12T08:07:42.223Z,70.80
2018-01-12T08:10:09.826Z,70.40
2018-01-12T08:12:38.195Z,70.60
2018-01-12T08:15:06.608Z,70.80
2018-01-12T08:17:34.310Z,70.70
2018-01-12T08:20:01.936Z,70.60
2018-01-12T08:22:29.544Z,70.40
2018-01-12T08:24:57.158Z,70.20
2018-01-12T08:27:25.534Z,70.30
2018-01-12T08:29:53.894Z,70.10
2018-01-12T08:32:22.311Z,69.60
2018-01-12T08:34:50.666Z,69.60
2018-01-12T08:37:18.427Z,69.60
2018-01-12T08:39:46.017Z,69.80
2018-01-12T08:42:14.413Z,69.40
2018-01-12T08:44:42.795Z,69.40
2018-01-12T08:47:11.153Z,69.60
2018-01-12T08:49:38.777Z,69.60
2018-01-12T08:52:06.361Z,69.40
2018-01-12T08:54:34.132Z,69.60
2018-01-12T08:57:01.743Z,69.30
2018-01-12T08:59:30.126Z,69.20
2018-01-12T09:01:57.727Z,69.20
2018-01-12T09:04:25.685Z,68.80
2018-01-12T09:06:53.301Z,68.80
2018-01-12T09:09:20.979Z,69.00
2018-01-12T09:11:48.600Z,68.70
2018-01-12T09:14:28.215Z,68.50
2018-01-12T09:16:55.823Z,68.20
2018-01-12T09:19:29.264Z,68.00
2018-01-12T09:21:56.842Z,67.40
2018-01-12T09:24:24.450Z,67.20
2018-01-12T09:26:52.070Z,67.50
2018-01-12T09:29:19.663Z,68.00
2018-01-12T09:31:51.247Z,67.50
2018-01-12T09:34:30.490Z,67.60
2018-01-12T09:36:58.410Z,67.30
2018-01-12T09:39:37.782Z,67.00
2018-01-12T09:42:05.408Z,67.00
2018-01-12T09:44:33.002Z,67.10
2018-01-12T09:47:12.615Z,67.10
2018-01-12T09:49:47.035Z,67.20
2018-01-12T09:52:14.732Z,67.70
2018-01-12T09:54:42.325Z,67.70
2018-01-12T09:57:09.912Z,67.70
2018-01-12T09:59:44.223Z,67.50
2018-01-12T10:02:12.579Z,67.90
2018-01-12T10:04:40.250Z,67.80
2018-01-12T10:07:16.495Z,67.30
2018-01-12T10:09:49.030Z,67.30
2018-01-12T10:12:16.826Z,67.50
2018-01-12T10:14:44.437Z,67.50
2018-01-12T10:17:12.073Z,67.40
2018-01-12T10:20:02.208Z,67.20
2018-01-12T10:22:30.091Z,66.70
2018-01-12T10:24:57.686Z,66.90
2018-01-12T10:27:25.279Z,66.40
2018-01-12T10:29:57.485Z,66.70
2018-01-12T10:32:26.621Z,66.70
2018-01-12T10:35:06.909Z,66.90
2018-01-12T10:37:35.263Z,66.10
2018-01-12T10:40:02.912Z,66.10
2018-01-12T10:42:30.500Z,66.40
2018-01-12T10:44:58.104Z,66.20
2018-01-12T10:47:27.299Z,66.70
2018-01-12T10:49:57.272Z,66.50
2018-01-12T10:52:45.519Z,66.50
2018-01-12T10:55:13.115Z,66.50
2018-01-12T10:57:41.539Z,66.50
2018-01-12T11:03:04.260Z,66.00
2018-01-12T11:05:32.738Z,65.80
2018-01-12T11:08:00.346Z,65.80
2018-01-12T11:10:27.972Z,65.30
2018-01-12T11:12:55.591Z,65.90
2018-01-12T11:15:23.215Z,65.20
2018-01-12T11:17:51.600Z,64.80
2018-01-12T11:20:19.390Z,64.80
2018-01-12T11:22:47.069Z,65.10
2018-01-12T11:25:14.668Z,64.70
2018-01-12T11:27:42.293Z,64.20
2018-01-12T11:30:09.890Z,64.40
2018-01-12T11:32:37.505Z,64.60
2018-01-12T11:35:05.878Z,65.70
2018-01-12T11:37:34.244Z,64.90
2018-01-12T11:40:01.950Z,64.90
2018-01-12T11:42:29.586Z,64.90
2018-01-12T11:44:57.226Z,64.60
2018-01-12T11:47:24.821Z,64.50
2018-01-12T11:49:53.205Z,64.90
2018-01-12T11:52:21.578Z,65.30
2018-01-12T11:54:49.179Z,65.20
2018-01-12T11:57:16.851Z,65.40
2018-01-12T11:59:44.509Z,65.40
2018-01-12T12:02:12.188Z,65.30
2018-01-12T12:04:39.816Z,65.40
2018-01-12T12:07:07.411Z,65.30
2018-01-12T12:09:35.037Z,65.20
2018-01-12T12:12:02.655Z,64.50
2018-01-12T12:14:30.374Z,65.10
2018-01-12T12:16:57.969Z,65.40
2018-01-12T12:19:25.929Z,65.40
2018-01-12T12:21:54.303Z,64.50
2018-01-12T12:24:21.998Z,64.50
2018-01-12T12:26:49.650Z,64.90
2018-01-12T12:29:18.027Z,65.50
2018-01-12T12:31:46.408Z,65.70
2018-01-12T12:34:14.782Z,65.30
2018-01-12T12:36:42.412Z,65.30
2018-01-12T12:39:10.042Z,65.00
2018-01-12T12:41:37.632Z,64.80
2018-01-12T12:44:05.371Z,65.20
2018-01-12T12:46:32.958Z,65.20
2018-01-12T12:49:00.593Z,65.40
2018-01-12T12:51:28.961Z,65.80
2018-01-12T12:53:56.588Z,65.70
2018-01-12T12:56:24.182Z,65.70
2018-01-12T12:58:52.550Z,65.70
2018-01-12T13:01:20.190Z,65.70
2018-01-12T13:03:47.796Z,65.70
2018-01-12T13:06:17.078Z,65.90
2018-01-12T13:08:44.690Z,65.80
2018-01-12T13:11:13.064Z,65.60
2018-01-12T13:13:40.698Z,65.60
2018-01-12T13:16:08.300Z,65.10
2018-01-12T13:18:36.699Z,65.10
2018-01-12T13:21:04.311Z,65.10
2018-01-12T13:23:31.944Z,64.90
2018-01-12T13:25:59.532Z,65.00
2018-01-12T13:28:27.160Z,65.00
2018-01-12T13:30:55.545Z,65.10
2018-01-12T13:33:23.163Z,65.10
2018-01-12T13:35:50.808Z,64.70
2018-01-12T13:38:18.414Z,64.90
2018-01-12T13:40:46.068Z,64.80
2018-01-12T13:43:13.679Z,65.10
2018-01-12T13:45:41.274Z,65.50
2018-01-12T13:48:08.885Z,65.40
2018-01-12T13:50:37.243Z,65.50
2018-01-12T13:53:05.904Z,65.50
2018-01-12T13:55:33.501Z,65.50
2018-01-12T13:58:01.133Z,65.50
2018-01-12T14:00:28.747Z,65.40
2018-01-12T14:02:56.377Z,65.60
2018-01-12T14:05:24.007Z,65.50
2018-01-12T14:07:51.633Z,65.60
2018-01-12T14:10:20.015Z,66.00
2018-01-12T14:12:47.637Z,66.00
2018-01-12T14:15:15.231Z,65.90
2018-01-12T14:17:42.867Z,65.50
2018-01-12T14:20:10.501Z,65.80
2018-01-12T14:22:38.929Z,66.20
2018-01-12T14:25:06.531Z,66.10
2018-01-12T14:27:34.140Z,66.20
2018-01-12T14:30:01.779Z,66.20
2018-01-12T14:32:29.399Z,66.30
2018-01-12T14:34:57.024Z,66.90
2018-01-12T14:37:25.535Z,66.60
2018-01-12T14:39:53.155Z,66.50
2018-01-12T14:42:20.820Z,66.70
2018-01-12T14:44:48.422Z,66.80
2018-01-12T14:47:16.068Z,66.80
2018-01-12T14:49:44.454Z,67.10
2018-01-12T14:52:12.828Z,67.00
2018-01-12T14:54:41.222Z,67.30
2018-01-12T14:57:09.587Z,66.80
2018-01-12T14:59:38.071Z,66.80
2018-01-12T15:02:05.670Z,66.80
2018-01-12T15:04:33.316Z,66.90
2018-01-12T15:07:01.686Z,66.70
2018-01-12T15:09:29.308Z,66.80
2018-01-12T15:11:56.980Z,66.60
2018-01-12T15:14:24.588Z,66.30
2018-01-12T15:16:52.207Z,66.70
2018-01-12T15:19:19.823Z,67.00
2018-01-12T15:21:47.476Z,67.30
2018-01-12T15:24:15.072Z,67.60
2018-01-12T15:26:42.692Z,67.50
2018-01-12T15:29:10.304Z,67.80
2018-01-12T15:31:38.674Z,67.70
2018-01-12T15:34:07.267Z,68.00
2018-01-12T15:36:35.652Z,67.70
2018-01-12T15:39:04.004Z,67.80
2018-01-12T15:41:31.621Z,67.70
2018-01-12T15:43:59.249Z,68.00
2018-01-12T15:46:27.143Z,68.00
2018-01-12T15:48:55.525Z,68.00
2018-01-12T15:51:23.927Z,68.20
2018-01-12T15:53:51.527Z,68.20
2018-01-12T15:56:19.118Z,68.40
2018-01-12T15:58:47.535Z,68.70
2018-01-12T16:01:15.141Z,68.70
2018-01-12T16:03:42.775Z,68.70
2018-01-12T16:06:10.415Z,68.80
2018-01-12T16:08:38.793Z,68.80
2018-01-12T16:11:06.395Z,68.70
2018-01-12T16:13:33.998Z,68.80
2018-01-12T16:16:01.663Z,68.70
2018-01-12T16:18:29.285Z,68.80
2018-01-12T16:20:56.875Z,68.80
2018-01-12T16:23:24.526Z,68.80
2018-01-12T16:25:52.123Z,68.90
2018-01-12T16:28:19.803Z,69.00
2018-01-12T16:30:48.215Z,69.10
2018-01-12T16:33:16.590Z,69.10
2018-01-12T16:35:45.011Z,69.10
2018-01-12T16:38:13.487Z,69.20
2018-01-12T16:40:41.135Z,69.10
2018-01-12T16:43:09.564Z,69.40
2018-01-12T16:45:38.064Z,69.40
2018-01-12T16:48:06.590Z,69.60
2018-01-12T16:50:34.996Z,69.50
2018-01-12T16:53:02.658Z,69.40
2018-01-12T16:55:30.300Z,69.40
2018-01-12T16:57:58.918Z,69.80
2018-01-12T17:00:26.534Z,69.70
2018-01-12T17:02:54.156Z,69.90
2018-01-12T17:05:21.794Z,70.00
2018-01-12T17:07:50.176Z,70.00
2018-01-12T17:10:18.584Z,70.00
2018-01-12T17:12:46.208Z,70.00
2018-01-12T17:15:13.857Z,69.80
2018-01-12T17:17:41.490Z,69.80
2018-01-12T17:20:09.183Z,69.90
2018-01-12T17:22:36.821Z,70.00
2018-01-12T17:25:04.453Z,70.70
2018-01-12T17:27:32.834Z,70.10
2018-01-12T17:30:01.222Z,70.20
2018-01-12T17:32:29.593Z,70.20
2018-01-12T17:34:57.229Z,70.20
2018-01-12T17:37:24.835Z,70.20
2018-01-12T17:39:53.400Z,70.30
2018-01-12T17:44:52.502Z,70.30
2018-01-12T17:47:20.160Z,70.50
2018-01-12T17:49:47.800Z,70.60
2018-01-12T17:52:15.544Z,71.50
2018-01-12T17:54:43.927Z,70.80
2018-01-12T17:57:12.325Z,70.90
2018-01-12T17:59:40.067Z,70.90
2018-01-12T18:02:07.693Z,70.80
2018-01-12T18:04:35.381Z,70.90
2018-01-12T18:07:02.993Z,70.90
2018-01-12T18:09:31.397Z,71.10
2018-01-12T18:11:59.143Z,71.10
2018-01-12T18:14:27.559Z,71.10
2018-01-12T18:16:55.188Z,71.60
2018-01-12T18:19:23.638Z,71.30
2018-01-12T18:21:51.515Z,71.30
2018-01-12T18:24:19.301Z,71.20
2018-01-12T18:26:47.882Z,71.20
2018-01-12T18:29:15.562Z,71.20
2018-01-12T18:31:44.006Z,71.30
2018-01-12T18:34:11.635Z,71.30
2018-01-12T18:36:39.284Z,71.30
2018-01-12T18:39:07.687Z,71.20
2018-01-12T18:41:35.300Z,71.20
2018-01-12T18:44:02.928Z,71.20
2018-01-12T18:46:30.575Z,71.20
2018-01-12T18:48:58.932Z,71.40
2018-01-12T18:51:26.577Z,71.30
2018-01-12T18:53:54.250Z,71.20
2018-01-12T18:56:22.246Z,71.30
2018-01-12T18:58:49.897Z,71.30
2018-01-12T19:01:17.675Z,71.40
2018-01-12T19:03:46.154Z,71.60
2018-01-12T19:06:13.869Z,71.60
2018-01-12T19:08:41.605Z,71.60
2018-01-12T19:11:10.087Z,71.70
2018-01-12T19:13:38.683Z,71.70
2018-01-12T19:16:07.173Z,71.70
2018-01-12T19:18:35.575Z,71.70
2018-01-12T19:21:03.550Z,71.70
2018-01-12T19:23:31.159Z,71.70
2018-01-12T19:25:58.820Z,71.70
2018-01-12T19:28:26.477Z,71.80
2018-01-12T19:30:54.265Z,71.80
2018-01-12T19:33:23.626Z,71.80
2018-01-12T19:35:51.307Z,71.80
2018-01-12T19:38:19.301Z,71.90
2018-01-12T19:40:47.950Z,71.80
2018-01-12T19:43:16.281Z,71.80
2018-01-12T19:45:45.026Z,71.80
2018-01-12T19:48:13.826Z,71.80
2018-01-12T19:50:41.595Z,71.80
2018-01-12T19:53:10.244Z,71.90
2018-01-12T19:55:37.900Z,71.90
2018-01-12T19:58:05.614Z,72.50
2018-01-12T20:00:33.284Z,71.40
2018-01-12T20:03:00.974Z,71.80
2018-01-12T20:05:28.634Z,71.70
2018-01-12T20:07:56.362Z,71.90
2018-01-12T20:10:24.701Z,72.00
2018-01-12T20:12:52.393Z,72.00
2018-01-12T20:15:20.084Z,72.00
2018-01-12T20:17:48.530Z,72.50
2018-01-12T20:22:38.578Z,71.90
2018-01-12T20:25:07.133Z,72.00
2018-01-12T20:27:35.690Z,71.90
2018-01-12T20:30:03.374Z,71.90
2018-01-12T20:32:31.120Z,72.00
2018-01-12T20:34:59.409Z,72.00
2018-01-12T20:37:27.117Z,72.10
2018-01-12T20:39:54.777Z,72.20
2018-01-12T20:42:22.535Z,72.20
2018-01-12T20:44:50.269Z,72.20
2018-01-12T20:47:17.961Z,72.30
2018-01-12T20:49:45.636Z,72.30
2018-01-12T20:52:13.365Z,72.40
2018-01-12T20:54:41.074Z,72.40
2018-01-12T20:57:10.885Z,72.50
2018-01-12T20:59:38.574Z,72.50
2018-01-12T21:02:07.095Z,72.70
2018-01-12T21:04:34.807Z,72.50
2018-01-12T21:07:02.517Z,72.50
2018-01-12T21:09:30.946Z,72.50
2018-01-12T21:11:59.443Z,72.50
2018-01-12T21:14:27.127Z,72.60
2018-01-12T21:16:54.798Z,72.70
2018-01-12T21:19:24.155Z,72.80
2018-01-12T21:21:51.918Z,72.80
2018-01-12T21:24:19.609Z,72.80
2018-01-12T21:26:47.552Z,72.90
2018-01-12T21:29:15.247Z,73.00
2018-01-12T21:31:42.968Z,73.00
2018-01-12T21:34:10.769Z,72.80
2018-01-12T21:36:38.494Z,72.60
2018-01-12T21:39:06.973Z,72.60
2018-01-12T21:41:34.686Z,72.50
2018-01-12T21:44:02.464Z,73.10
2018-01-12T21:46:30.893Z,72.40
2018-01-12T21:48:58.564Z,72.50
2018-01-12T21:51:26.266Z,72.50
2018-01-12T21:53:53.944Z,72.70
2018-01-12T21:56:21.613Z,72.80
2018-01-12T21:58:49.298Z,72.80
2018-01-12T22:01:17.009Z,72.90
2018-01-12T22:03:44.676Z,72.90
2018-01-12T22:06:13.066Z,73.10
2018-01-12T22:08:41.500Z,72.90
2018-01-12T22:11:09.134Z,72.80
2018-01-12T22:13:36.846Z,72.80
2018-01-12T22:16:04.503Z,72.70
2018-01-12T22:18:32.210Z,72.40
2018-01-12T22:21:00.648Z,72.30
2018-01-12T22:23:29.068Z,72.50
2018-01-12T22:25:58.245Z,72.20
2018-01-12T22:28:25.885Z,72.20
2018-01-12T22:30:53.561Z,72.00
2018-01-12T22:33:21.212Z,72.00
2018-01-12T22:35:48.907Z,72.00
2018-01-12T22:38:16.552Z,72.00
2018-01-12T22:40:44.183Z,71.90
2018-01-12T22:43:11.841Z,71.90
2018-01-12T22:45:39.461Z,72.00
2018-01-12T22:48:07.105Z,71.90
2018-01-12T22:50:35.507Z,71.20
2018-01-12T22:53:03.371Z,71.20
2018-01-12T22:55:30.997Z,71.30
2018-01-12T22:58:00.105Z,71.20
2018-01-12T23:00:28.533Z,71.60
2018-01-12T23:02:56.161Z,71.00
2018-01-12T23:05:24.575Z,71.30
2018-01-12T23:07:52.179Z,71.20
2018-01-12T23:10:19.939Z,71.40
2018-01-12T23:12:47.564Z,71.70
2018-01-12T23:15:15.182Z,71.90
2018-01-12T23:17:42.847Z,72.10
2018-01-12T23:20:10.466Z,72.20
2018-01-12T23:22:38.072Z,72.40
2018-01-12T23:25:05.698Z,72.50
2018-01-12T23:27:33.306Z,72.60
2018-01-12T23:30:00.962Z,72.50
2018-01-12T23:32:28.550Z,72.40
2018-01-12T23:34:56.154Z,72.50
2018-01-12T23:37:23.770Z,72.60
2018-01-12T23:39:51.354Z,72.60
2018-01-12T23:42:18.980Z,72.70
2018-01-12T23:44:46.594Z,72.50
2018-01-12T23:47:14.182Z,72.50
2018-01-12T23:49:41.810Z,72.70
2018-01-12T23:52:09.406Z,72.50
2018-01-12T23:54:37.787Z,72.50
2018-01-12T23:57:06.141Z,72.50
2018-01-12T23:59:35.273Z,72.60
